sensor_id;sensor_type;location;lat;lon;timestamp;temperature;humidity
48515;DHT22;34309;47.260;2.796;2023-04-03T00:00:35;22.10;22.60
48515;DHT22;34309;47.260;2.796;2023-04-03T00:03:08;22.10;22.40
48515;DHT22;34309;47.260;2.796;2023-04-03T00:05:42;22.10;22.50
48515;DHT22;34309;47.260;2.796;2023-04-03T00:08:18;22.00;22.30
48515;DHT22;34309;47.260;2.796;2023-04-03T00:10:52;22.10;22.40
48515;DHT22;34309;47.260;2.796;2023-04-03T00:13:25;22.00;22.40
48515;DHT22;34309;47.260;2.796;2023-04-03T00:15:59;22.00;22.50
48515;DHT22;34309;47.260;2.796;2023-04-03T00:18:33;22.00;22.50
48515;DHT22;34309;47.260;2.796;2023-04-03T00:21:08;22.00;22.60
48515;DHT22;34309;47.260;2.796;2023-04-03T00:23:43;21.90;22.50
48515;DHT22;34309;47.260;2.796;2023-04-03T00:26:17;21.90;22.50
48515;DHT22;34309;47.260;2.796;2023-04-03T00:28:51;21.90;22.60
48515;DHT22;34309;47.260;2.796;2023-04-03T00:31:25;21.90;22.50
48515;DHT22;34309;47.260;2.796;2023-04-03T00:33:59;21.90;22.60
48515;DHT22;34309;47.260;2.796;2023-04-03T00:36:32;21.90;22.60
48515;DHT22;34309;47.260;2.796;2023-04-03T00:39:07;21.90;22.60
48515;DHT22;34309;47.260;2.796;2023-04-03T00:41:41;21.80;23.10
48515;DHT22;34309;47.260;2.796;2023-04-03T00:44:23;21.80;22.60
48515;DHT22;34309;47.260;2.796;2023-04-03T00:47:17;21.80;22.60
48515;DHT22;34309;47.260;2.796;2023-04-03T00:49:52;21.80;22.60
48515;DHT22;34309;47.260;2.796;2023-04-03T00:52:30;21.80;22.60
48515;DHT22;34309;47.260;2.796;2023-04-03T00:55:07;21.70;22.70
48515;DHT22;34309;47.260;2.796;2023-04-03T00:57:42;21.80;22.80
48515;DHT22;34309;47.260;2.796;2023-04-03T01:00:18;21.70;23.00
48515;DHT22;34309;47.260;2.796;2023-04-03T01:02:53;21.70;22.70
48515;DHT22;34309;47.260;2.796;2023-04-03T01:05:27;21.70;22.70
48515;DHT22;34309;47.260;2.796;2023-04-03T01:08:01;21.70;22.80
48515;DHT22;34309;47.260;2.796;2023-04-03T01:10:36;21.70;22.70
48515;DHT22;34309;47.260;2.796;2023-04-03T01:13:22;21.70;22.70
48515;DHT22;34309;47.260;2.796;2023-04-03T01:15:57;21.70;22.80
48515;DHT22;34309;47.260;2.796;2023-04-03T01:18:34;21.60;22.80
48515;DHT22;34309;47.260;2.796;2023-04-03T01:21:42;21.60;22.70
48515;DHT22;34309;47.260;2.796;2023-04-03T01:24:33;21.60;22.80
48515;DHT22;34309;47.260;2.796;2023-04-03T01:27:10;21.60;22.80
48515;DHT22;34309;47.260;2.796;2023-04-03T01:29:44;21.60;22.80
48515;DHT22;34309;47.260;2.796;2023-04-03T01:32:20;21.60;22.80
48515;DHT22;34309;47.260;2.796;2023-04-03T01:34:53;21.60;22.80
48515;DHT22;34309;47.260;2.796;2023-04-03T01:37:27;21.60;22.80
48515;DHT22;34309;47.260;2.796;2023-04-03T01:40:01;21.70;22.80
48515;DHT22;34309;47.260;2.796;2023-04-03T01:42:35;21.70;22.90
48515;DHT22;34309;47.260;2.796;2023-04-03T01:45:09;21.80;22.80
48515;DHT22;34309;47.260;2.796;2023-04-03T01:47:45;21.80;22.70
48515;DHT22;34309;47.260;2.796;2023-04-03T01:50:18;21.80;22.70
48515;DHT22;34309;47.260;2.796;2023-04-03T01:52:52;21.90;22.60
48515;DHT22;34309;47.260;2.796;2023-04-03T01:55:26;22.00;22.60
48515;DHT22;34309;47.260;2.796;2023-04-03T01:58:00;22.00;22.50
48515;DHT22;34309;47.260;2.796;2023-04-03T02:00:33;22.00;22.30
48515;DHT22;34309;47.260;2.796;2023-04-03T02:03:09;22.00;22.30
48515;DHT22;34309;47.260;2.796;2023-04-03T02:05:40;22.10;22.40
48515;DHT22;34309;47.260;2.796;2023-04-03T02:08:13;22.10;22.30
48515;DHT22;34309;47.260;2.796;2023-04-03T02:10:50;22.10;22.40
48515;DHT22;34309;47.260;2.796;2023-04-03T02:13:24;22.10;22.40
48515;DHT22;34309;47.260;2.796;2023-04-03T02:15:58;22.10;22.30
48515;DHT22;34309;47.260;2.796;2023-04-03T02:18:33;22.10;22.30
48515;DHT22;34309;47.260;2.796;2023-04-03T02:21:07;22.10;22.30
48515;DHT22;34309;47.260;2.796;2023-04-03T02:23:40;22.10;22.30
48515;DHT22;34309;47.260;2.796;2023-04-03T02:26:15;22.10;22.20
48515;DHT22;34309;47.260;2.796;2023-04-03T02:28:49;22.10;22.20
48515;DHT22;34309;47.260;2.796;2023-04-03T02:31:23;22.10;22.20
48515;DHT22;34309;47.260;2.796;2023-04-03T02:33:58;22.10;22.20
48515;DHT22;34309;47.260;2.796;2023-04-03T02:36:32;22.10;22.10
48515;DHT22;34309;47.260;2.796;2023-04-03T02:39:06;22.10;22.40
48515;DHT22;34309;47.260;2.796;2023-04-03T02:41:40;22.10;22.10
48515;DHT22;34309;47.260;2.796;2023-04-03T02:44:13;22.10;22.10
48515;DHT22;34309;47.260;2.796;2023-04-03T02:46:47;22.10;22.10
48515;DHT22;34309;47.260;2.796;2023-04-03T02:49:22;22.00;22.30
48515;DHT22;34309;47.260;2.796;2023-04-03T02:51:56;22.00;22.10
48515;DHT22;34309;47.260;2.796;2023-04-03T02:54:30;22.00;22.20
48515;DHT22;34309;47.260;2.796;2023-04-03T02:57:04;22.00;22.40
48515;DHT22;34309;47.260;2.796;2023-04-03T02:59:38;22.00;22.30
48515;DHT22;34309;47.260;2.796;2023-04-03T03:02:12;21.90;22.10
48515;DHT22;34309;47.260;2.796;2023-04-03T03:04:47;21.90;22.20
48515;DHT22;34309;47.260;2.796;2023-04-03T03:07:21;21.90;22.10
48515;DHT22;34309;47.260;2.796;2023-04-03T03:09:55;21.90;22.20
48515;DHT22;34309;47.260;2.796;2023-04-03T03:12:28;21.90;22.30
48515;DHT22;34309;47.260;2.796;2023-04-03T03:15:02;21.90;22.40
48515;DHT22;34309;47.260;2.796;2023-04-03T03:17:36;21.80;22.40
48515;DHT22;34309;47.260;2.796;2023-04-03T03:20:13;21.80;22.40
48515;DHT22;34309;47.260;2.796;2023-04-03T03:22:47;21.80;22.60
48515;DHT22;34309;47.260;2.796;2023-04-03T03:25:21;21.80;22.30
48515;DHT22;34309;47.260;2.796;2023-04-03T03:27:54;21.80;22.20
48515;DHT22;34309;47.260;2.796;2023-04-03T03:30:28;21.70;22.40
48515;DHT22;34309;47.260;2.796;2023-04-03T03:33:01;21.70;22.80
48515;DHT22;34309;47.260;2.796;2023-04-03T03:35:37;21.70;22.50
48515;DHT22;34309;47.260;2.796;2023-04-03T03:38:11;21.70;22.60
48515;DHT22;34309;47.260;2.796;2023-04-03T03:40:46;21.70;22.60
48515;DHT22;34309;47.260;2.796;2023-04-03T03:43:15;21.60;22.50
48515;DHT22;34309;47.260;2.796;2023-04-03T03:45:50;21.60;22.50
48515;DHT22;34309;47.260;2.796;2023-04-03T03:48:24;21.60;22.60
48515;DHT22;34309;47.260;2.796;2023-04-03T03:50:59;21.60;22.60
48515;DHT22;34309;47.260;2.796;2023-04-03T03:53:33;21.60;22.70
48515;DHT22;34309;47.260;2.796;2023-04-03T03:56:07;21.50;22.60
48515;DHT22;34309;47.260;2.796;2023-04-03T03:58:41;21.50;22.50
48515;DHT22;34309;47.260;2.796;2023-04-03T04:01:14;21.50;22.70
48515;DHT22;34309;47.260;2.796;2023-04-03T04:03:49;21.50;22.60
48515;DHT22;34309;47.260;2.796;2023-04-03T04:06:24;21.50;22.80
48515;DHT22;34309;47.260;2.796;2023-04-03T04:08:58;21.50;22.80
48515;DHT22;34309;47.260;2.796;2023-04-03T04:11:32;21.40;22.70
48515;DHT22;34309;47.260;2.796;2023-04-03T04:14:05;21.40;23.00
48515;DHT22;34309;47.260;2.796;2023-04-03T04:16:39;21.40;22.80
48515;DHT22;34309;47.260;2.796;2023-04-03T04:19:13;21.40;22.90
48515;DHT22;34309;47.260;2.796;2023-04-03T04:21:49;21.40;22.90
48515;DHT22;34309;47.260;2.796;2023-04-03T04:24:22;21.40;22.80
48515;DHT22;34309;47.260;2.796;2023-04-03T04:26:56;21.40;22.70
48515;DHT22;34309;47.260;2.796;2023-04-03T04:29:30;21.40;22.70
48515;DHT22;34309;47.260;2.796;2023-04-03T04:32:07;21.30;22.80
48515;DHT22;34309;47.260;2.796;2023-04-03T04:34:41;21.30;22.70
48515;DHT22;34309;47.260;2.796;2023-04-03T04:37:16;21.30;22.70
48515;DHT22;34309;47.260;2.796;2023-04-03T04:39:50;21.40;22.60
48515;DHT22;34309;47.260;2.796;2023-04-03T04:42:24;21.40;22.70
48515;DHT22;34309;47.260;2.796;2023-04-03T04:44:58;21.50;22.80
48515;DHT22;34309;47.260;2.796;2023-04-03T04:47:31;21.50;22.80
48515;DHT22;34309;47.260;2.796;2023-04-03T04:50:06;21.60;22.70
48515;DHT22;34309;47.260;2.796;2023-04-03T04:52:41;21.60;22.60
48515;DHT22;34309;47.260;2.796;2023-04-03T04:55:15;21.70;22.60
48515;DHT22;34309;47.260;2.796;2023-04-03T04:57:48;21.70;22.40
48515;DHT22;34309;47.260;2.796;2023-04-03T05:00:22;21.70;22.40
48515;DHT22;34309;47.260;2.796;2023-04-03T05:02:56;21.70;22.30
48515;DHT22;34309;47.260;2.796;2023-04-03T05:05:30;21.80;22.40
48515;DHT22;34309;47.260;2.796;2023-04-03T05:08:05;21.80;22.40
48515;DHT22;34309;47.260;2.796;2023-04-03T05:10:40;21.80;22.30
48515;DHT22;34309;47.260;2.796;2023-04-03T05:13:14;21.80;22.20
48515;DHT22;34309;47.260;2.796;2023-04-03T05:15:47;21.80;22.30
48515;DHT22;34309;47.260;2.796;2023-04-03T05:18:21;21.80;22.30
48515;DHT22;34309;47.260;2.796;2023-04-03T05:20:55;21.80;22.20
48515;DHT22;34309;47.260;2.796;2023-04-03T05:23:31;21.80;22.30
48515;DHT22;34309;47.260;2.796;2023-04-03T05:26:04;21.80;22.30
48515;DHT22;34309;47.260;2.796;2023-04-03T05:28:39;21.80;22.10
48515;DHT22;34309;47.260;2.796;2023-04-03T05:31:13;21.80;22.30
48515;DHT22;34309;47.260;2.796;2023-04-03T05:33:47;21.80;22.20
48515;DHT22;34309;47.260;2.796;2023-04-03T05:36:21;21.80;22.10
48515;DHT22;34309;47.260;2.796;2023-04-03T05:38:56;21.80;22.10
48515;DHT22;34309;47.260;2.796;2023-04-03T05:41:30;21.80;22.30
48515;DHT22;34309;47.260;2.796;2023-04-03T05:44:04;21.80;22.20
48515;DHT22;34309;47.260;2.796;2023-04-03T05:46:37;21.80;22.40
48515;DHT22;34309;47.260;2.796;2023-04-03T05:49:11;21.80;22.10
48515;DHT22;34309;47.260;2.796;2023-04-03T05:51:45;21.70;22.00
48515;DHT22;34309;47.260;2.796;2023-04-03T05:54:23;21.70;22.00
48515;DHT22;34309;47.260;2.796;2023-04-03T05:56:57;21.70;22.00
48515;DHT22;34309;47.260;2.796;2023-04-03T05:59:30;21.70;21.90
48515;DHT22;34309;47.260;2.796;2023-04-03T06:02:04;21.70;22.10
48515;DHT22;34309;47.260;2.796;2023-04-03T06:04:38;21.70;22.10
48515;DHT22;34309;47.260;2.796;2023-04-03T06:07:13;21.60;22.10
48515;DHT22;34309;47.260;2.796;2023-04-03T06:09:49;21.60;22.10
48515;DHT22;34309;47.260;2.796;2023-04-03T06:12:23;21.60;22.20
48515;DHT22;34309;47.260;2.796;2023-04-03T06:14:57;21.60;22.40
48515;DHT22;34309;47.260;2.796;2023-04-03T06:17:31;21.60;22.20
48515;DHT22;34309;47.260;2.796;2023-04-03T06:20:05;21.60;22.30
48515;DHT22;34309;47.260;2.796;2023-04-03T06:22:39;21.50;22.20
48515;DHT22;34309;47.260;2.796;2023-04-03T06:25:15;21.50;22.10
48515;DHT22;34309;47.260;2.796;2023-04-03T06:27:50;21.50;22.20
48515;DHT22;34309;47.260;2.796;2023-04-03T06:30:24;21.50;22.20
48515;DHT22;34309;47.260;2.796;2023-04-03T06:32:59;21.50;22.10
48515;DHT22;34309;47.260;2.796;2023-04-03T06:35:32;21.60;22.20
48515;DHT22;34309;47.260;2.796;2023-04-03T06:38:07;21.60;22.30
48515;DHT22;34309;47.260;2.796;2023-04-03T06:40:43;21.60;22.10
48515;DHT22;34309;47.260;2.796;2023-04-03T06:43:18;21.70;22.20
48515;DHT22;34309;47.260;2.796;2023-04-03T06:45:52;21.70;22.10
48515;DHT22;34309;47.260;2.796;2023-04-03T06:48:26;21.70;22.00
48515;DHT22;34309;47.260;2.796;2023-04-03T06:51:00;21.80;22.10
48515;DHT22;34309;47.260;2.796;2023-04-03T06:53:33;21.80;22.00
48515;DHT22;34309;47.260;2.796;2023-04-03T06:56:09;21.90;22.10
48515;DHT22;34309;47.260;2.796;2023-04-03T06:58:43;21.90;22.10
48515;DHT22;34309;47.260;2.796;2023-04-03T07:01:17;21.90;22.00
48515;DHT22;34309;47.260;2.796;2023-04-03T07:03:52;21.90;22.00
48515;DHT22;34309;47.260;2.796;2023-04-03T07:06:25;21.90;22.00
48515;DHT22;34309;47.260;2.796;2023-04-03T07:08:55;21.90;21.90
48515;DHT22;34309;47.260;2.796;2023-04-03T07:11:30;21.90;22.00
48515;DHT22;34309;47.260;2.796;2023-04-03T07:14:04;21.90;21.90
48515;DHT22;34309;47.260;2.796;2023-04-03T07:16:39;21.90;21.90
48515;DHT22;34309;47.260;2.796;2023-04-03T07:19:13;21.90;21.90
48515;DHT22;34309;47.260;2.796;2023-04-03T07:21:46;21.90;21.90
48515;DHT22;34309;47.260;2.796;2023-04-03T07:24:20;21.90;22.00
48515;DHT22;34309;47.260;2.796;2023-04-03T07:26:55;21.90;21.90
48515;DHT22;34309;47.260;2.796;2023-04-03T07:29:32;21.90;21.90
48515;DHT22;34309;47.260;2.796;2023-04-03T07:32:06;21.90;21.80
48515;DHT22;34309;47.260;2.796;2023-04-03T07:34:40;21.90;21.90
48515;DHT22;34309;47.260;2.796;2023-04-03T07:37:13;21.90;21.80
48515;DHT22;34309;47.260;2.796;2023-04-03T07:39:47;21.90;22.30
48515;DHT22;34309;47.260;2.796;2023-04-03T07:42:23;21.80;22.60
48515;DHT22;34309;47.260;2.796;2023-04-03T07:44:56;21.90;22.90
48515;DHT22;34309;47.260;2.796;2023-04-03T07:47:25;21.90;23.00
48515;DHT22;34309;47.260;2.796;2023-04-03T07:49:59;21.90;23.10
48515;DHT22;34309;47.260;2.796;2023-04-03T07:52:33;21.90;23.30
48515;DHT22;34309;47.260;2.796;2023-04-03T07:55:08;21.90;23.30
48515;DHT22;34309;47.260;2.796;2023-04-03T07:57:43;22.00;24.10
48515;DHT22;34309;47.260;2.796;2023-04-03T08:00:18;22.00;23.50
48515;DHT22;34309;47.260;2.796;2023-04-03T08:02:51;22.00;23.60
48515;DHT22;34309;47.260;2.796;2023-04-03T08:05:25;22.00;23.60
48515;DHT22;34309;47.260;2.796;2023-04-03T08:07:59;22.00;23.70
48515;DHT22;34309;47.260;2.796;2023-04-03T08:10:33;22.00;23.70
48515;DHT22;34309;47.260;2.796;2023-04-03T08:13:09;22.00;23.80
48515;DHT22;34309;47.260;2.796;2023-04-03T08:15:43;22.10;23.90
48515;DHT22;34309;47.260;2.796;2023-04-03T08:18:18;22.10;24.00
48515;DHT22;34309;47.260;2.796;2023-04-03T08:20:53;22.10;23.90
48515;DHT22;34309;47.260;2.796;2023-04-03T08:23:27;22.10;23.90
48515;DHT22;34309;47.260;2.796;2023-04-03T08:26:06;22.10;24.00
48515;DHT22;34309;47.260;2.796;2023-04-03T08:28:42;22.10;24.10
48515;DHT22;34309;47.260;2.796;2023-04-03T08:31:17;22.10;24.10
48515;DHT22;34309;47.260;2.796;2023-04-03T08:33:52;22.10;24.10
48515;DHT22;34309;47.260;2.796;2023-04-03T08:36:29;22.10;24.10
48515;DHT22;34309;47.260;2.796;2023-04-03T08:39:03;22.10;24.20
48515;DHT22;34309;47.260;2.796;2023-04-03T08:41:38;22.10;24.20
48515;DHT22;34309;47.260;2.796;2023-04-03T08:44:21;22.10;24.20
48515;DHT22;34309;47.260;2.796;2023-04-03T08:47:04;22.10;24.20
48515;DHT22;34309;47.260;2.796;2023-04-03T08:49:45;22.10;24.10
48515;DHT22;34309;47.260;2.796;2023-04-03T08:52:27;22.10;24.30
48515;DHT22;34309;47.260;2.796;2023-04-03T08:55:07;22.10;24.20
48515;DHT22;34309;47.260;2.796;2023-04-03T08:57:48;22.10;24.00
48515;DHT22;34309;47.260;2.796;2023-04-03T09:00:28;22.10;24.10
48515;DHT22;34309;47.260;2.796;2023-04-03T09:03:03;22.10;24.00
48515;DHT22;34309;47.260;2.796;2023-04-03T09:05:43;22.00;24.00
48515;DHT22;34309;47.260;2.796;2023-04-03T09:08:23;22.00;23.90
48515;DHT22;34309;47.260;2.796;2023-04-03T09:11:09;22.00;24.00
48515;DHT22;34309;47.260;2.796;2023-04-03T09:13:51;22.00;24.00
48515;DHT22;34309;47.260;2.796;2023-04-03T09:16:36;22.00;24.00
48515;DHT22;34309;47.260;2.796;2023-04-03T09:19:18;22.00;24.10
48515;DHT22;34309;47.260;2.796;2023-04-03T09:21:50;22.00;24.30
48515;DHT22;34309;47.260;2.796;2023-04-03T09:24:24;22.00;24.20
48515;DHT22;34309;47.260;2.796;2023-04-03T09:27:01;22.00;24.30
48515;DHT22;34309;47.260;2.796;2023-04-03T09:29:39;22.00;24.40
48515;DHT22;34309;47.260;2.796;2023-04-03T09:32:25;21.90;24.40
48515;DHT22;34309;47.260;2.796;2023-04-03T09:35:03;21.90;24.30
48515;DHT22;34309;47.260;2.796;2023-04-03T09:37:40;22.00;24.60
48515;DHT22;34309;47.260;2.796;2023-04-03T09:40:35;22.00;24.60
48515;DHT22;34309;47.260;2.796;2023-04-03T09:43:25;21.90;24.60
48515;DHT22;34309;47.260;2.796;2023-04-03T09:46:29;21.90;24.70
48515;DHT22;34309;47.260;2.796;2023-04-03T09:49:05;22.00;25.30
48515;DHT22;34309;47.260;2.796;2023-04-03T09:51:44;21.90;24.70
48515;DHT22;34309;47.260;2.796;2023-04-03T09:54:32;21.90;24.80
48515;DHT22;34309;47.260;2.796;2023-04-03T09:57:10;21.90;24.80
48515;DHT22;34309;47.260;2.796;2023-04-03T09:59:55;21.90;24.70
48515;DHT22;34309;47.260;2.796;2023-04-03T10:02:35;22.00;25.40
48515;DHT22;34309;47.260;2.796;2023-04-03T10:05:31;21.90;24.80
48515;DHT22;34309;47.260;2.796;2023-04-03T10:08:20;21.90;24.80
48515;DHT22;34309;47.260;2.796;2023-04-03T10:11:13;22.00;24.90
48515;DHT22;34309;47.260;2.796;2023-04-03T10:13:55;22.00;24.90
48515;DHT22;34309;47.260;2.796;2023-04-03T10:16:37;22.00;25.00
48515;DHT22;34309;47.260;2.796;2023-04-03T10:19:22;21.90;24.80
48515;DHT22;34309;47.260;2.796;2023-04-03T10:22:10;22.00;24.70
48515;DHT22;34309;47.260;2.796;2023-04-03T10:24:56;22.00;24.80
48515;DHT22;34309;47.260;2.796;2023-04-03T10:27:41;21.90;24.80
48515;DHT22;34309;47.260;2.796;2023-04-03T10:30:27;22.00;24.70
48515;DHT22;34309;47.260;2.796;2023-04-03T10:33:16;22.00;24.70
48515;DHT22;34309;47.260;2.796;2023-04-03T10:36:01;22.00;24.70
48515;DHT22;34309;47.260;2.796;2023-04-03T10:38:43;22.00;24.70
48515;DHT22;34309;47.260;2.796;2023-04-03T10:41:23;22.00;24.80
48515;DHT22;34309;47.260;2.796;2023-04-03T10:44:09;22.00;24.60
48515;DHT22;34309;47.260;2.796;2023-04-03T10:46:49;22.00;24.90
48515;DHT22;34309;47.260;2.796;2023-04-03T10:49:34;22.00;24.70
48515;DHT22;34309;47.260;2.796;2023-04-03T10:52:14;22.00;24.60
48515;DHT22;34309;47.260;2.796;2023-04-03T10:55:00;21.90;24.50
48515;DHT22;34309;47.260;2.796;2023-04-03T10:57:36;21.90;24.50
48515;DHT22;34309;47.260;2.796;2023-04-03T11:00:17;21.90;24.60
48515;DHT22;34309;47.260;2.796;2023-04-03T11:02:56;21.90;24.30
48515;DHT22;34309;47.260;2.796;2023-04-03T11:05:34;21.90;24.30
48515;DHT22;34309;47.260;2.796;2023-04-03T11:08:15;21.90;24.30
48515;DHT22;34309;47.260;2.796;2023-04-03T11:10:55;21.80;24.20
48515;DHT22;34309;47.260;2.796;2023-04-03T11:13:34;21.80;24.00
48515;DHT22;34309;47.260;2.796;2023-04-03T11:16:13;21.80;24.20
48515;DHT22;34309;47.260;2.796;2023-04-03T11:18:56;21.80;24.10
48515;DHT22;34309;47.260;2.796;2023-04-03T11:21:34;21.80;24.00
48515;DHT22;34309;47.260;2.796;2023-04-03T11:24:17;21.80;24.00
48515;DHT22;34309;47.260;2.796;2023-04-03T11:26:56;21.70;23.90
48515;DHT22;34309;47.260;2.796;2023-04-03T11:29:34;21.70;24.10
48515;DHT22;34309;47.260;2.796;2023-04-03T11:32:25;21.70;23.90
48515;DHT22;34309;47.260;2.796;2023-04-03T11:35:02;21.70;23.80
48515;DHT22;34309;47.260;2.796;2023-04-03T11:37:43;21.60;23.80
48515;DHT22;34309;47.260;2.796;2023-04-03T11:40:24;21.60;23.70
48515;DHT22;34309;47.260;2.796;2023-04-03T11:43:06;21.60;23.60
48515;DHT22;34309;47.260;2.796;2023-04-03T11:45:50;21.60;23.70
48515;DHT22;34309;47.260;2.796;2023-04-03T11:48:48;21.50;23.60
48515;DHT22;34309;47.260;2.796;2023-04-03T11:51:41;21.50;23.50
48515;DHT22;34309;47.260;2.796;2023-04-03T11:54:49;21.50;23.50
48515;DHT22;34309;47.260;2.796;2023-04-03T11:57:46;21.50;23.60
48515;DHT22;34309;47.260;2.796;2023-04-03T12:00:53;21.40;23.50
48515;DHT22;34309;47.260;2.796;2023-04-03T12:10:12;21.30;23.30
48515;DHT22;34309;47.260;2.796;2023-04-03T12:12:59;21.30;23.50
48515;DHT22;34309;47.260;2.796;2023-04-03T12:15:48;21.30;23.30
48515;DHT22;34309;47.260;2.796;2023-04-03T12:18:43;21.30;23.40
48515;DHT22;34309;47.260;2.796;2023-04-03T12:21:19;21.20;23.30
48515;DHT22;34309;47.260;2.796;2023-04-03T12:24:03;21.20;23.60
48515;DHT22;34309;47.260;2.796;2023-04-03T12:27:09;21.20;23.60
48515;DHT22;34309;47.260;2.796;2023-04-03T12:29:50;21.20;23.80
48515;DHT22;34309;47.260;2.796;2023-04-03T12:35:30;21.20;24.00
48515;DHT22;34309;47.260;2.796;2023-04-03T12:41:21;21.20;24.10
48515;DHT22;34309;47.260;2.796;2023-04-03T12:44:18;21.30;24.30
48515;DHT22;34309;47.260;2.796;2023-04-03T12:46:54;21.30;24.40
48515;DHT22;34309;47.260;2.796;2023-04-03T12:49:38;21.30;24.40
48515;DHT22;34309;47.260;2.796;2023-04-03T12:52:22;21.30;24.40
48515;DHT22;34309;47.260;2.796;2023-04-03T12:55:00;21.30;24.30
48515;DHT22;34309;47.260;2.796;2023-04-03T12:57:36;21.30;24.40
48515;DHT22;34309;47.260;2.796;2023-04-03T13:00:22;21.30;24.50
48515;DHT22;34309;47.260;2.796;2023-04-03T13:03:01;21.30;24.50
48515;DHT22;34309;47.260;2.796;2023-04-03T13:05:36;21.30;24.40
48515;DHT22;34309;47.260;2.796;2023-04-03T13:08:13;21.30;24.40
48515;DHT22;34309;47.260;2.796;2023-04-03T13:10:54;21.30;24.20
48515;DHT22;34309;47.260;2.796;2023-04-03T13:13:29;21.30;24.20
48515;DHT22;34309;47.260;2.796;2023-04-03T13:16:08;21.30;24.00
48515;DHT22;34309;47.260;2.796;2023-04-03T13:18:50;21.30;24.00
48515;DHT22;34309;47.260;2.796;2023-04-03T13:21:26;21.30;23.90
48515;DHT22;34309;47.260;2.796;2023-04-03T13:24:03;21.30;24.10
48515;DHT22;34309;47.260;2.796;2023-04-03T13:26:37;21.30;23.90
48515;DHT22;34309;47.260;2.796;2023-04-03T13:29:22;21.30;23.70
48515;DHT22;34309;47.260;2.796;2023-04-03T13:31:57;21.30;23.70
48515;DHT22;34309;47.260;2.796;2023-04-03T13:34:36;21.30;23.60
48515;DHT22;34309;47.260;2.796;2023-04-03T13:37:22;21.30;23.60
48515;DHT22;34309;47.260;2.796;2023-04-03T13:40:00;21.20;23.30
48515;DHT22;34309;47.260;2.796;2023-04-03T13:42:35;21.20;23.30
48515;DHT22;34309;47.260;2.796;2023-04-03T13:45:24;21.20;23.40
48515;DHT22;34309;47.260;2.796;2023-04-03T13:48:16;21.20;23.20
48515;DHT22;34309;47.260;2.796;2023-04-03T13:50:54;21.20;23.20
48515;DHT22;34309;47.260;2.796;2023-04-03T13:53:29;21.20;23.20
48515;DHT22;34309;47.260;2.796;2023-04-03T13:56:13;21.10;23.10
48515;DHT22;34309;47.260;2.796;2023-04-03T13:58:59;21.10;23.00
48515;DHT22;34309;47.260;2.796;2023-04-03T14:01:40;21.10;23.00
48515;DHT22;34309;47.260;2.796;2023-04-03T14:04:17;21.10;22.80
48515;DHT22;34309;47.260;2.796;2023-04-03T14:06:52;21.10;22.90
48515;DHT22;34309;47.260;2.796;2023-04-03T14:09:27;21.00;22.80
48515;DHT22;34309;47.260;2.796;2023-04-03T14:12:06;21.00;22.70
48515;DHT22;34309;47.260;2.796;2023-04-03T14:14:40;21.00;23.00
48515;DHT22;34309;47.260;2.796;2023-04-03T14:17:16;21.00;22.70
48515;DHT22;34309;47.260;2.796;2023-04-03T14:19:51;21.00;22.70
48515;DHT22;34309;47.260;2.796;2023-04-03T14:22:30;20.90;22.70
48515;DHT22;34309;47.260;2.796;2023-04-03T14:25:04;20.90;22.60
48515;DHT22;34309;47.260;2.796;2023-04-03T14:27:41;20.90;22.60
48515;DHT22;34309;47.260;2.796;2023-04-03T14:30:18;20.90;22.60
48515;DHT22;34309;47.260;2.796;2023-04-03T14:32:53;20.80;22.50
48515;DHT22;34309;47.260;2.796;2023-04-03T14:35:27;20.80;22.70
48515;DHT22;34309;47.260;2.796;2023-04-03T14:38:01;20.80;22.70
48515;DHT22;34309;47.260;2.796;2023-04-03T14:40:34;20.80;22.60
48515;DHT22;34309;47.260;2.796;2023-04-03T14:43:06;20.80;22.60
48515;DHT22;34309;47.260;2.796;2023-04-03T14:45:39;20.80;22.50
48515;DHT22;34309;47.260;2.796;2023-04-03T14:48:18;20.80;22.60
48515;DHT22;34309;47.260;2.796;2023-04-03T14:50:53;20.80;22.70
48515;DHT22;34309;47.260;2.796;2023-04-03T14:53:26;20.70;22.60
48515;DHT22;34309;47.260;2.796;2023-04-03T14:56:02;20.70;22.60
48515;DHT22;34309;47.260;2.796;2023-04-03T14:58:37;20.70;22.60
48515;DHT22;34309;47.260;2.796;2023-04-03T15:01:11;20.70;22.60
48515;DHT22;34309;47.260;2.796;2023-04-03T15:03:46;20.70;22.60
48515;DHT22;34309;47.260;2.796;2023-04-03T15:06:15;20.60;22.40
48515;DHT22;34309;47.260;2.796;2023-04-03T15:08:49;20.60;22.50
48515;DHT22;34309;47.260;2.796;2023-04-03T15:11:23;20.60;22.40
48515;DHT22;34309;47.260;2.796;2023-04-03T15:13:59;20.60;22.40
48515;DHT22;34309;47.260;2.796;2023-04-03T15:16:33;20.60;22.50
48515;DHT22;34309;47.260;2.796;2023-04-03T15:19:06;20.60;22.50
48515;DHT22;34309;47.260;2.796;2023-04-03T15:21:40;20.60;22.40
48515;DHT22;34309;47.260;2.796;2023-04-03T15:24:14;20.50;22.30
48515;DHT22;34309;47.260;2.796;2023-04-03T15:26:48;20.60;22.40
48515;DHT22;34309;47.260;2.796;2023-04-03T15:29:23;20.50;22.30
48515;DHT22;34309;47.260;2.796;2023-04-03T15:31:56;20.50;22.30
48515;DHT22;34309;47.260;2.796;2023-04-03T15:34:30;20.50;22.30
48515;DHT22;34309;47.260;2.796;2023-04-03T15:37:04;20.50;22.90
48515;DHT22;34309;47.260;2.796;2023-04-03T15:39:38;20.50;22.40
48515;DHT22;34309;47.260;2.796;2023-04-03T15:42:12;20.40;22.70
48515;DHT22;34309;47.260;2.796;2023-04-03T15:44:47;20.50;22.30
48515;DHT22;34309;47.260;2.796;2023-04-03T15:47:21;20.50;22.30
48515;DHT22;34309;47.260;2.796;2023-04-03T15:49:55;20.40;22.30
48515;DHT22;34309;47.260;2.796;2023-04-03T15:52:29;20.40;22.40
48515;DHT22;34309;47.260;2.796;2023-04-03T15:55:03;20.40;22.40
48515;DHT22;34309;47.260;2.796;2023-04-03T15:57:38;20.40;22.50
48515;DHT22;34309;47.260;2.796;2023-04-03T16:00:14;20.40;22.40
48515;DHT22;34309;47.260;2.796;2023-04-03T16:02:49;20.40;22.40
48515;DHT22;34309;47.260;2.796;2023-04-03T16:05:24;20.40;22.20
48515;DHT22;34309;47.260;2.796;2023-04-03T16:07:59;20.40;22.30
48515;DHT22;34309;47.260;2.796;2023-04-03T16:10:34;20.40;22.40
48515;DHT22;34309;47.260;2.796;2023-04-03T16:13:08;20.40;22.40
48515;DHT22;34309;47.260;2.796;2023-04-03T16:15:43;20.40;22.40
48515;DHT22;34309;47.260;2.796;2023-04-03T16:18:17;20.50;22.50
48515;DHT22;34309;47.260;2.796;2023-04-03T16:20:51;20.50;22.40
48515;DHT22;34309;47.260;2.796;2023-04-03T16:23:25;20.60;22.60
48515;DHT22;34309;47.260;2.796;2023-04-03T16:25:58;20.80;22.30
48515;DHT22;34309;47.260;2.796;2023-04-03T16:28:32;20.90;22.20
48515;DHT22;34309;47.260;2.796;2023-04-03T16:31:08;21.10;22.00
48515;DHT22;34309;47.260;2.796;2023-04-03T16:33:41;21.20;21.90
48515;DHT22;34309;47.260;2.796;2023-04-03T16:36:15;21.30;21.80
48515;DHT22;34309;47.260;2.796;2023-04-03T16:38:49;21.40;21.60
48515;DHT22;34309;47.260;2.796;2023-04-03T16:41:23;21.50;21.60
48515;DHT22;34309;47.260;2.796;2023-04-03T16:43:57;21.60;21.60